Time;durP1;ratioP1;P1;durP2;ratioP2;P2;SDS_P1;SDS_P2;PMS_P1;PMS_P2;Temp;Humidity;BMP_temperature;BMP_pressure;BME280_temperature;BME280_humidity;BME280_pressure;Samples;Min_cycle;Max_cycle;Signal;HPM_P1;HPM_P2
2023/08/27 00:01:25;;;;;;;4.13;2.30;;;20.40;82.30;;;;;;5052723;28;20487;-60
2023/08/27 00:03:52;;;;;;;3.57;2.20;;;20.40;82.50;;;;;;5052506;28;20998;-60
2023/08/27 00:06:19;;;;;;;4.67;2.33;;;20.30;82.70;;;;;;5053745;28;20827;-60
2023/08/27 00:08:47;;;;;;;5.40;2.40;;;20.30;82.90;;;;;;5056597;28;20452;-60
2023/08/27 00:11:13;;;;;;;5.30;2.87;;;20.30;83.00;;;;;;5056134;28;21002;-60
2023/08/27 00:13:40;;;;;;;3.90;2.40;;;20.20;83.10;;;;;;5056189;28;20853;-60
2023/08/27 00:16:07;;;;;;;3.43;2.30;;;20.20;83.20;;;;;;5056423;28;20469;-60
2023/08/27 00:18:34;;;;;;;5.80;3.00;;;20.20;83.30;;;;;;5056668;28;20437;-60
2023/08/27 00:21:00;;;;;;;3.57;2.53;;;20.20;83.50;;;;;;5055849;28;20446;-60
2023/08/27 00:23:27;;;;;;;5.43;2.23;;;20.10;83.60;;;;;;5056395;28;20430;-60
2023/08/27 00:25:55;;;;;;;4.10;2.53;;;20.10;84.00;;;;;;5056311;28;20485;-60
2023/08/27 00:28:22;;;;;;;4.00;2.33;;;20.10;84.40;;;;;;5056112;28;20488;-60
2023/08/27 00:30:48;;;;;;;3.77;2.23;;;20.10;84.90;;;;;;5056043;28;20450;-60
2023/08/27 00:33:15;;;;;;;5.00;2.33;;;20.10;84.90;;;;;;5056303;28;20442;-60
2023/08/27 00:35:42;;;;;;;5.63;2.17;;;20.10;84.90;;;;;;5055975;28;20445;-60
2023/08/27 00:38:09;;;;;;;6.67;2.53;;;20.10;84.90;;;;;;5055769;28;20883;-60
2023/08/27 00:40:36;;;;;;;5.23;2.93;;;20.00;84.90;;;;;;5055903;28;20437;-60
2023/08/27 00:43:04;;;;;;;3.70;2.07;;;20.00;85.00;;;;;;5055796;28;20472;-60
2023/08/27 00:45:31;;;;;;;5.20;2.40;;;20.00;85.30;;;;;;5055703;28;20478;-60
2023/08/27 00:47:58;;;;;;;2.97;2.10;;;19.90;85.50;;;;;;5055825;28;20495;-60
2023/08/27 00:50:26;;;;;;;3.20;2.43;;;19.90;85.50;;;;;;5055412;28;20967;-60
2023/08/27 00:52:53;;;;;;;3.63;1.90;;;19.90;85.40;;;;;;5055344;28;20979;-60
2023/08/27 00:55:20;;;;;;;3.07;1.93;;;19.90;85.30;;;;;;5055626;28;20444;-60
2023/08/27 00:57:47;;;;;;;9.70;2.73;;;19.90;85.20;;;;;;5055389;28;20954;-60
2023/08/27 01:00:16;;;;;;;3.03;2.40;;;19.80;85.30;;;;;;5055251;28;20803;-60
2023/08/27 01:02:44;;;;;;;3.40;1.90;;;19.80;85.20;;;;;;5055556;28;20478;-60
2023/08/27 01:05:12;;;;;;;2.53;1.80;;;19.80;85.30;;;;;;5055059;28;20854;-60
2023/08/27 01:07:45;;;;;;;4.80;2.50;;;19.70;85.10;;;;;;5054328;28;20436;-60
2023/08/27 01:10:18;;;;;;;2.47;2.27;;;19.60;85.20;;;;;;5055427;28;20196;-60
2023/08/27 01:12:54;;;;;;;5.80;2.40;;;19.50;85.30;;;;;;5055405;28;20461;-60
2023/08/27 01:15:23;;;;;;;3.90;2.30;;;19.50;85.60;;;;;;5055436;28;20472;-60
2023/08/27 01:17:52;;;;;;;3.37;2.40;;;19.40;85.70;;;;;;5055573;28;20555;-60
2023/08/27 01:20:19;;;;;;;3.77;1.90;;;19.40;86.00;;;;;;5055206;28;20442;-60
2023/08/27 01:22:47;;;;;;;6.87;2.10;;;19.40;86.10;;;;;;5054733;28;20475;-60
2023/08/27 01:25:17;;;;;;;3.17;2.20;;;19.30;86.10;;;;;;5055063;28;20489;-60
2023/08/27 01:27:50;;;;;;;4.50;2.40;;;19.30;86.40;;;;;;5055093;28;20422;-60
2023/08/27 01:30:22;;;;;;;5.10;2.43;;;19.20;86.60;;;;;;5055195;28;20476;-60
2023/08/27 01:32:56;;;;;;;4.83;2.60;;;19.20;87.00;;;;;;5054975;28;20457;-60
2023/08/27 01:35:24;;;;;;;3.43;2.80;;;19.20;87.50;;;;;;5055230;28;20425;-60
2023/08/27 01:37:52;;;;;;;3.30;2.50;;;19.20;88.20;;;;;;5054808;28;20445;-60
2023/08/27 01:40:19;;;;;;;6.37;2.53;;;19.30;88.60;;;;;;5054785;28;20449;-60
2023/08/27 01:42:48;;;;;;;4.90;2.90;;;19.30;88.50;;;;;;5054755;28;20469;-60
2023/08/27 01:45:15;;;;;;;3.50;2.33;;;19.30;88.20;;;;;;5054580;28;20489;-59
2023/08/27 01:47:42;;;;;;;7.53;2.70;;;19.20;88.00;;;;;;5054628;28;20445;-59
2023/08/27 01:50:09;;;;;;;4.47;2.30;;;19.20;88.10;;;;;;5054608;28;20816;-60
2023/08/27 01:52:36;;;;;;;2.93;2.63;;;19.10;88.20;;;;;;5054521;28;20474;-60
2023/08/27 01:55:05;;;;;;;4.70;3.10;;;19.10;88.40;;;;;;5054212;28;20446;-60
2023/08/27 01:57:31;;;;;;;8.03;3.13;;;19.00;88.30;;;;;;5054469;28;20444;-59
2023/08/27 01:59:58;;;;;;;6.73;2.50;;;18.90;88.30;;;;;;5054159;28;20932;-59
2023/08/27 02:02:25;;;;;;;4.30;2.87;;;18.90;88.60;;;;;;5053981;28;20975;-59
2023/08/27 02:04:52;;;;;;;4.85;3.10;;;18.90;88.60;;;;;;5052814;28;20972;-59
2023/08/27 02:07:18;;;;;;;5.70;2.33;;;18.80;88.20;;;;;;5053966;28;20617;-59
2023/08/27 02:09:45;;;;;;;4.33;2.53;;;18.70;88.30;;;;;;5054138;28;20449;-62
2023/08/27 02:12:13;;;;;;;3.23;2.60;;;18.70;88.50;;;;;;5054276;28;20473;-60
2023/08/27 02:14:40;;;;;;;2.77;2.47;;;18.70;88.70;;;;;;5054811;28;20448;-60
2023/08/27 02:17:06;;;;;;;5.37;2.33;;;18.70;88.60;;;;;;5054503;28;20445;-60
2023/08/27 02:19:33;;;;;;;3.53;2.43;;;18.60;88.40;;;;;;5053877;28;20951;-60
2023/08/27 02:22:01;;;;;;;4.10;2.57;;;18.60;88.60;;;;;;5054022;28;20487;-60
2023/08/27 02:24:28;;;;;;;6.27;2.20;;;18.60;88.50;;;;;;5054489;28;20451;-60
2023/08/27 02:26:54;;;;;;;3.37;2.13;;;18.50;88.60;;;;;;5054011;28;20448;-60
2023/08/27 02:29:23;;;;;;;4.90;2.90;;;18.50;88.60;;;;;;5053584;28;20449;-60
2023/08/27 02:31:49;;;;;;;3.13;2.83;;;18.40;88.80;;;;;;5054013;28;20465;-60
2023/08/27 02:34:16;;;;;;;4.60;2.40;;;18.40;89.30;;;;;;5053565;28;20792;-60
2023/08/27 02:36:42;;;;;;;4.23;2.33;;;18.40;89.80;;;;;;5053864;28;20794;-60
2023/08/27 02:39:09;;;;;;;3.57;2.37;;;18.40;90.10;;;;;;5053848;28;20489;-60
2023/08/27 02:41:36;;;;;;;3.53;2.43;;;18.40;90.10;;;;;;5053599;28;20468;-60
2023/08/27 02:44:02;;;;;;;5.80;2.47;;;18.40;90.00;;;;;;5053660;28;20456;-60
2023/08/27 02:46:30;;;;;;;2.57;2.27;;;18.40;90.00;;;;;;5053595;28;20535;-59
2023/08/27 02:48:57;;;;;;;4.30;3.00;;;18.40;90.00;;;;;;5053555;28;20441;-59
2023/08/27 02:51:24;;;;;;;2.67;2.20;;;18.30;90.00;;;;;;5053431;28;20476;-59
2023/08/27 02:53:51;;;;;;;3.80;2.53;;;18.30;90.10;;;;;;5053485;28;20461;-59
2023/08/27 02:56:17;;;;;;;2.80;2.60;;;18.30;90.20;;;;;;5053424;28;20438;-59
2023/08/27 02:58:44;;;;;;;5.23;2.83;;;18.30;90.50;;;;;;5053497;28;20452;-59
2023/08/27 03:01:17;;;;;;;7.90;3.10;;;18.40;90.80;;;;;;5053521;28;20469;-59
2023/08/27 03:03:46;;;;;;;4.17;3.33;;;18.40;90.90;;;;;;5053399;28;20462;-59
2023/08/27 03:06:12;;;;;;;4.17;2.20;;;18.40;90.70;;;;;;5053438;28;20482;-59
2023/08/27 03:08:39;;;;;;;3.30;2.43;;;18.40;90.70;;;;;;5053365;28;20441;-59
2023/08/27 03:11:06;;;;;;;4.83;2.73;;;18.30;90.70;;;;;;5053226;28;20457;-59
2023/08/27 03:13:32;;;;;;;2.80;2.60;;;18.30;90.70;;;;;;5053221;28;20438;-59
2023/08/27 03:15:59;;;;;;;6.03;2.23;;;18.20;90.50;;;;;;5053302;28;20454;-59
2023/08/27 03:18:26;;;;;;;2.70;2.50;;;18.20;90.60;;;;;;5052998;28;20943;-59
2023/08/27 03:20:54;;;;;;;2.27;2.10;;;18.20;90.70;;;;;;5052723;28;20791;-59
2023/08/27 03:23:20;;;;;;;2.17;1.97;;;18.20;90.80;;;;;;5053297;28;20835;-59
2023/08/27 03:25:49;;;;;;;2.67;2.43;;;18.20;90.70;;;;;;5052861;28;20835;-60
2023/08/27 03:28:16;;;;;;;2.93;2.63;;;18.20;90.70;;;;;;5052840;28;20943;-60
2023/08/27 03:30:43;;;;;;;2.73;2.20;;;18.10;90.70;;;;;;5053020;28;20441;-60
2023/08/27 03:33:09;;;;;;;5.67;2.50;;;18.10;90.70;;;;;;5052783;28;20846;-60
2023/08/27 03:35:36;;;;;;;3.93;2.37;;;18.10;90.70;;;;;;5053044;28;20441;-60
2023/08/27 03:38:04;;;;;;;4.13;2.80;;;18.10;90.80;;;;;;5053046;28;20452;-60
2023/08/27 03:40:31;;;;;;;2.80;2.37;;;18.10;91.20;;;;;;5053102;28;20445;-60
2023/08/27 03:42:58;;;;;;;3.60;2.67;;;18.00;91.40;;;;;;5056652;28;20461;-60
2023/08/27 03:45:24;;;;;;;4.67;2.47;;;17.90;91.50;;;;;;5056799;28;20473;-60
2023/08/27 03:47:51;;;;;;;4.93;2.20;;;17.90;91.90;;;;;;5056851;28;20449;-60
2023/08/27 03:50:17;;;;;;;2.67;2.40;;;17.90;92.10;;;;;;5057129;28;20449;-60
2023/08/27 03:52:44;;;;;;;3.40;2.13;;;17.90;92.30;;;;;;5056753;28;20537;-60
2023/08/27 03:55:12;;;;;;;4.23;2.37;;;17.90;92.40;;;;;;5057559;28;20433;-60
2023/08/27 03:57:39;;;;;;;8.43;2.40;;;17.80;92.60;;;;;;5056824;28;20442;-61
2023/08/27 04:00:07;;;;;;;1.80;1.70;;;17.80;92.90;;;;;;5056703;28;20452;-60
2023/08/27 04:02:34;;;;;;;5.73;2.50;;;17.80;92.90;;;;;;5056644;28;20535;-60
2023/08/27 04:05:04;;;;;;;4.00;2.43;;;17.90;93.00;;;;;;5056545;28;20457;-59
2023/08/27 04:07:31;;;;;;;8.40;1.90;;;17.90;93.10;;;;;;5056606;28;20452;-58
2023/08/27 04:09:58;;;;;;;2.50;1.87;;;17.90;93.20;;;;;;5056532;28;20446;-58
2023/08/27 04:12:26;;;;;;;6.97;2.10;;;18.00;93.20;;;;;;5056356;28;20472;-58
2023/08/27 04:14:53;;;;;;;4.23;2.20;;;17.90;93.10;;;;;;5057230;28;20907;-59
2023/08/27 04:17:19;;;;;;;4.20;2.33;;;18.00;93.40;;;;;;5056414;28;20460;-60
2023/08/27 04:19:46;;;;;;;2.90;1.90;;;18.00;93.50;;;;;;5056051;28;20958;-59
2023/08/27 04:22:12;;;;;;;9.27;1.90;;;18.00;93.50;;;;;;5056065;28;21006;-60
2023/08/27 04:24:39;;;;;;;3.00;1.77;;;18.00;93.70;;;;;;5056282;28;20454;-59
2023/08/27 04:27:06;;;;;;;3.83;2.00;;;18.00;93.60;;;;;;5056184;28;20481;-60
2023/08/27 04:29:34;;;;;;;13.90;1.93;;;18.00;93.70;;;;;;5056213;28;20528;-60
2023/08/27 04:32:02;;;;;;;2.57;1.87;;;18.00;93.80;;;;;;5055994;28;20461;-60
2023/08/27 04:34:29;;;;;;;7.17;2.23;;;18.00;93.90;;;;;;5056132;28;20450;-60
2023/08/27 04:36:56;;;;;;;5.57;1.60;;;18.00;93.60;;;;;;5056189;28;20491;-60
2023/08/27 04:39:23;;;;;;;3.20;1.87;;;18.00;93.60;;;;;;5055686;28;20955;-60
2023/08/27 04:41:50;;;;;;;4.43;1.90;;;18.00;93.70;;;;;;5055932;28;20461;-60
2023/08/27 04:44:16;;;;;;;2.90;1.90;;;18.00;93.70;;;;;;5055926;28;20446;-59
2023/08/27 04:46:45;;;;;;;5.97;2.10;;;18.00;93.60;;;;;;5056913;28;20481;-61
2023/08/27 04:49:12;;;;;;;4.30;1.70;;;18.00;93.70;;;;;;5059666;28;20448;-62
2023/08/27 04:51:39;;;;;;;2.30;1.83;;;18.00;93.80;;;;;;5058313;28;20469;-60
2023/08/27 04:54:06;;;;;;;4.17;1.70;;;18.00;93.90;;;;;;5055688;28;20453;-59
2023/08/27 04:56:33;;;;;;;4.17;1.87;;;18.00;94.00;;;;;;5055666;28;20442;-59
2023/08/27 04:58:59;;;;;;;5.60;2.50;;;17.90;94.10;;;;;;5055590;28;20452;-60
2023/08/27 05:01:26;;;;;;;7.27;2.13;;;18.00;94.50;;;;;;5055479;28;20473;-60
2023/08/27 05:03:54;;;;;;;5.37;1.90;;;18.00;94.40;;;;;;5055794;28;20441;-60
2023/08/27 05:06:21;;;;;;;5.03;2.10;;;18.00;94.50;;;;;;5055683;28;20481;-60
2023/08/27 05:08:48;;;;;;;3.77;1.80;;;18.00;94.50;;;;;;5056531;28;20457;-60
2023/08/27 05:11:15;;;;;;;4.77;1.90;;;18.00;94.50;;;;;;5054967;28;20975;-60
2023/08/27 05:13:42;;;;;;;3.47;3.20;;;18.00;94.60;;;;;;5055395;28;20450;-60
2023/08/27 05:16:09;;;;;;;7.80;2.90;;;18.10;94.50;;;;;;5055938;28;20437;-60
2023/08/27 05:18:35;;;;;;;5.83;2.30;;;18.10;94.50;;;;;;5055687;28;20447;-60
2023/08/27 05:21:03;;;;;;;3.70;2.07;;;18.10;94.70;;;;;;5055179;28;20477;-60
2023/08/27 05:23:30;;;;;;;4.23;2.43;;;18.10;94.90;;;;;;5055353;28;20443;-60
2023/08/27 05:25:57;;;;;;;6.33;1.83;;;18.10;95.10;;;;;;5055225;28;20481;-61
2023/08/27 05:28:24;;;;;;;6.13;1.93;;;18.20;95.30;;;;;;5055169;28;20448;-60
2023/08/27 05:30:51;;;;;;;2.70;1.53;;;18.20;95.20;;;;;;5055680;28;20496;-60
2023/08/27 05:33:18;;;;;;;4.43;2.00;;;18.30;94.90;;;;;;5055332;28;20511;-60
2023/08/27 05:35:44;;;;;;;2.40;1.80;;;18.30;94.90;;;;;;5055446;28;20450;-61
2023/08/27 05:38:12;;;;;;;2.40;1.93;;;18.30;94.90;;;;;;5055210;28;20452;-61
2023/08/27 05:40:39;;;;;;;4.43;1.97;;;18.40;95.10;;;;;;5054789;28;20457;-60
2023/08/27 05:43:06;;;;;;;5.83;1.77;;;18.40;95.10;;;;;;5055006;28;20466;-61
2023/08/27 05:45:33;;;;;;;2.97;2.47;;;18.30;94.70;;;;;;5054865;28;20449;-60
2023/08/27 05:48:00;;;;;;;2.33;2.17;;;18.40;94.80;;;;;;5054787;28;20441;-60
2023/08/27 05:50:26;;;;;;;3.47;2.27;;;18.40;94.80;;;;;;5054789;28;20449;-60
2023/08/27 05:52:53;;;;;;;2.50;2.20;;;18.40;94.90;;;;;;5054285;28;20468;-60
2023/08/27 05:55:21;;;;;;;2.10;1.77;;;18.40;95.00;;;;;;5054179;28;20954;-60
2023/08/27 05:57:48;;;;;;;2.30;2.10;;;18.40;94.70;;;;;;5054223;28;20503;-60
2023/08/27 06:00:15;;;;;;;1.80;1.70;;;18.20;94.40;;;;;;5054474;28;20433;-60
2023/08/27 06:02:42;;;;;;;3.47;2.03;;;18.20;94.80;;;;;;5054335;28;20461;-59
2023/08/27 06:05:09;;;;;;;2.40;2.20;;;18.20;95.10;;;;;;5053696;28;20446;-60
2023/08/27 06:07:36;;;;;;;4.70;2.30;;;18.10;95.30;;;;;;5054266;28;20481;-60
2023/08/27 06:10:02;;;;;;;2.17;1.97;;;18.10;95.60;;;;;;5054244;28;20449;-60
2023/08/27 06:12:30;;;;;;;2.63;2.10;;;18.10;95.50;;;;;;5054453;28;20465;-60
2023/08/27 06:14:57;;;;;;;2.60;2.27;;;18.10;95.50;;;;;;5054188;28;20448;-60
2023/08/27 06:17:24;;;;;;;2.63;2.43;;;18.10;95.60;;;;;;5054176;28;20437;-61
2023/08/27 06:19:51;;;;;;;2.30;2.10;;;18.20;95.50;;;;;;5054005;28;20447;-61
2023/08/27 06:22:20;;;;;;;4.60;2.00;;;18.20;95.70;;;;;;5053650;28;20480;-60
2023/08/27 06:24:47;;;;;;;2.23;2.03;;;18.40;95.70;;;;;;5053980;28;20441;-61
2023/08/27 06:27:14;;;;;;;3.13;2.80;;;18.40;95.50;;;;;;5054079;28;20534;-61
2023/08/27 06:29:44;;;;;;;2.70;2.50;;;18.50;95.40;;;;;;5053930;28;20520;-61
2023/08/27 06:32:10;;;;;;;6.57;3.40;;;18.60;95.20;;;;;;5053887;28;20538;-61
2023/08/27 06:34:37;;;;;;;3.20;2.90;;;18.70;94.90;;;;;;5053798;28;20449;-61
2023/08/27 06:37:04;;;;;;;2.97;2.60;;;18.80;94.20;;;;;;5053534;28;20444;-60
2023/08/27 06:39:31;;;;;;;3.07;2.77;;;18.70;93.50;;;;;;5053764;28;20491;-61
2023/08/27 06:41:57;;;;;;;3.80;2.83;;;18.80;93.80;;;;;;5053672;28;20461;-60
2023/08/27 06:44:24;;;;;;;2.97;2.77;;;18.80;94.10;;;;;;5053752;28;20442;-60
2023/08/27 06:46:52;;;;;;;2.70;2.50;;;18.80;94.00;;;;;;5053571;28;20485;-60
2023/08/27 06:49:19;;;;;;;3.40;3.00;;;18.80;94.00;;;;;;5053926;28;20442;-60
2023/08/27 06:51:46;;;;;;;4.53;2.37;;;18.90;93.90;;;;;;5053506;28;20473;-60
2023/08/27 06:54:13;;;;;;;3.80;2.53;;;18.90;93.90;;;;;;5053537;28;20449;-61
2023/08/27 06:56:40;;;;;;;3.07;2.87;;;19.00;93.80;;;;;;5053485;28;20861;-60
2023/08/27 06:59:07;;;;;;;4.57;3.17;;;19.00;93.70;;;;;;5053366;28;20453;-61
2023/08/27 07:01:33;;;;;;;4.30;3.07;;;19.00;93.80;;;;;;5053347;28;20466;-60
2023/08/27 07:04:03;;;;;;;4.77;3.27;;;19.10;93.50;;;;;;5053511;28;20449;-61
2023/08/27 07:06:31;;;;;;;3.23;2.90;;;19.10;93.50;;;;;;5054108;28;20512;-60
2023/08/27 07:08:57;;;;;;;3.70;3.30;;;19.10;93.60;;;;;;5053278;28;20464;-61
2023/08/27 07:11:24;;;;;;;4.47;3.00;;;19.10;93.50;;;;;;5053179;28;20461;-61
2023/08/27 07:13:51;;;;;;;4.20;3.10;;;19.20;93.70;;;;;;5053243;28;20461;-60
2023/08/27 07:16:19;;;;;;;4.47;3.50;;;19.30;93.70;;;;;;5053115;28;20442;-60
2023/08/27 07:18:46;;;;;;;4.70;3.70;;;19.40;93.50;;;;;;5053218;28;20450;-61
2023/08/27 07:21:14;;;;;;;4.53;3.90;;;19.60;93.30;;;;;;5052882;28;20505;-60
2023/08/27 07:23:41;;;;;;;3.20;2.90;;;19.70;92.70;;;;;;5053177;28;20437;-60
2023/08/27 07:26:07;;;;;;;7.13;3.37;;;19.90;92.50;;;;;;5052765;28;20488;-60
2023/08/27 07:28:34;;;;;;;6.00;3.40;;;20.10;92.20;;;;;;5052775;28;20851;-60
2023/08/27 07:31:01;;;;;;;4.10;3.50;;;20.30;91.90;;;;;;5053054;28;20472;-60
2023/08/27 07:33:28;;;;;;;3.60;3.30;;;20.40;90.90;;;;;;5053035;28;20442;-60
2023/08/27 07:35:54;;;;;;;3.90;3.50;;;20.50;90.50;;;;;;5053048;28;20476;-60
2023/08/27 07:38:26;;;;;;;4.20;3.50;;;20.60;90.30;;;;;;5053097;28;20442;-60
2023/08/27 07:40:53;;;;;;;3.60;3.00;;;20.70;90.40;;;;;;5053105;28;20431;-59
2023/08/27 07:43:19;;;;;;;3.20;2.83;;;20.80;90.00;;;;;;5052700;28;20959;-59
2023/08/27 07:45:46;;;;;;;3.17;2.87;;;20.80;89.00;;;;;;5053041;28;20813;-60
2023/08/27 07:48:13;;;;;;;4.90;2.53;;;20.90;88.50;;;;;;5053052;28;20485;-60
2023/08/27 07:50:40;;;;;;;3.07;2.60;;;21.00;88.20;;;;;;5052956;28;20453;-59
2023/08/27 07:53:06;;;;;;;2.93;2.17;;;21.10;87.20;;;;;;5052569;28;20469;-60
2023/08/27 07:55:36;;;;;;;2.80;2.20;;;21.20;86.80;;;;;;5052871;28;20447;-60
2023/08/27 07:58:03;;;;;;;3.47;2.40;;;21.40;86.10;;;;;;5053027;28;20445;-60
2023/08/27 08:00:29;;;;;;;5.33;2.20;;;21.60;84.20;;;;;;5052602;28;20835;-60
2023/08/27 08:02:56;;;;;;;2.83;2.10;;;21.70;83.80;;;;;;5052710;28;20465;-59
2023/08/27 08:05:23;;;;;;;5.23;2.37;;;21.90;83.80;;;;;;5052792;28;20824;-59
2023/08/27 08:07:49;;;;;;;2.33;1.77;;;22.10;81.10;;;;;;5052937;28;20473;-59
2023/08/27 08:10:16;;;;;;;2.33;2.00;;;22.10;79.70;;;;;;5052709;28;20453;-59
2023/08/27 08:12:44;;;;;;;1.70;1.60;;;22.10;79.40;;;;;;5052340;28;20475;-59
2023/08/27 08:15:11;;;;;;;2.20;1.60;;;22.00;79.20;;;;;;5052348;28;20795;-60
2023/08/27 08:17:38;;;;;;;2.57;2.03;;;22.00;79.10;;;;;;5052648;28;20441;-59
2023/08/27 08:20:06;;;;;;;2.30;1.50;;;22.00;79.10;;;;;;5052807;28;20444;-60
2023/08/27 08:22:32;;;;;;;2.83;1.47;;;22.10;79.30;;;;;;5052765;28;20481;-60
2023/08/27 08:24:59;;;;;;;3.07;2.17;;;22.20;79.50;;;;;;5053015;28;20454;-60
2023/08/27 08:27:26;;;;;;;2.47;2.00;;;22.10;77.70;;;;;;5053842;28;20884;-59
2023/08/27 08:29:55;;;;;;;1.80;1.70;;;22.00;78.10;;;;;;5056542;28;20818;-59
2023/08/27 08:32:21;;;;;;;2.40;1.57;;;22.00;79.50;;;;;;5055944;28;20485;-59
2023/08/27 08:34:48;;;;;;;2.50;1.57;;;22.00;80.30;;;;;;5055793;28;20878;-60
2023/08/27 08:37:15;;;;;;;6.00;2.50;;;22.10;79.60;;;;;;5056100;28;20449;-60
2023/08/27 08:39:41;;;;;;;2.73;1.43;;;22.20;78.10;;;;;;5056062;28;20940;-60
2023/08/27 08:42:14;;;;;;;2.10;1.23;;;22.30;78.40;;;;;;5055692;28;20978;-61
2023/08/27 08:44:50;;;;;;;1.87;1.27;;;22.30;76.90;;;;;;5055798;28;20899;-60
2023/08/27 08:47:22;;;;;;;6.70;1.77;;;22.30;73.90;;;;;;5055864;28;20472;-60
2023/08/27 08:49:52;;;;;;;1.73;1.27;;;22.30;73.60;;;;;;5055902;28;20430;-60
2023/08/27 08:52:22;;;;;;;1.30;1.20;;;22.30;73.70;;;;;;5055478;28;20993;-61
2023/08/27 08:54:52;;;;;;;2.03;1.63;;;22.10;73.40;;;;;;5055844;28;20445;-60
2023/08/27 08:57:20;;;;;;;3.87;1.03;;;22.00;74.50;;;;;;5055961;28;20429;-60
2023/08/27 08:59:48;;;;;;;3.03;1.03;;;22.10;74.30;;;;;;5055562;28;20448;-60
2023/08/27 09:02:16;;;;;;;1.63;1.03;;;22.10;72.60;;;;;;5055560;28;20466;-60
2023/08/27 09:04:44;;;;;;;1.70;1.30;;;22.00;71.40;;;;;;5055556;28;20446;-60
2023/08/27 09:07:11;;;;;;;6.90;1.30;;;21.80;72.10;;;;;;5055121;28;20995;-60
2023/08/27 09:09:39;;;;;;;3.13;1.10;;;21.70;74.10;;;;;;5055175;28;20453;-60
2023/08/27 09:12:08;;;;;;;1.93;1.10;;;21.80;74.70;;;;;;5055358;28;20489;-60
2023/08/27 09:14:36;;;;;;;1.30;1.10;;;21.90;74.20;;;;;;5055636;28;20485;-60
2023/08/27 09:17:05;;;;;;;1.13;1.03;;;21.90;72.70;;;;;;5055040;28;20433;-60
2023/08/27 09:19:32;;;;;;;2.53;1.07;;;22.00;72.80;;;;;;5055717;28;20527;-60
2023/08/27 09:22:00;;;;;;;1.53;1.30;;;22.20;74.50;;;;;;5055122;28;20498;-60
2023/08/27 09:24:27;;;;;;;2.20;1.37;;;22.40;72.90;;;;;;5055002;28;20958;-60
2023/08/27 09:26:53;;;;;;;2.73;1.27;;;22.70;71.70;;;;;;5055107;28;20473;-60
2023/08/27 09:29:21;;;;;;;1.70;1.40;;;22.90;71.10;;;;;;5055084;28;20827;-61
2023/08/27 09:31:48;;;;;;;4.07;1.30;;;23.10;70.90;;;;;;5055080;28;20469;-59
2023/08/27 09:34:16;;;;;;;3.83;1.10;;;23.40;67.90;;;;;;5055152;28;20445;-59
2023/08/27 09:36:42;;;;;;;1.50;1.10;;;23.60;68.10;;;;;;5054997;28;20456;-59
2023/08/27 09:39:12;;;;;;;2.40;1.47;;;23.60;65.40;;;;;;5053577;28;20951;-59
2023/08/27 09:41:40;;;;;;;2.07;1.80;;;23.60;65.50;;;;;;5054472;28;20532;-59
2023/08/27 09:44:08;;;;;;;2.27;1.03;;;23.60;66.10;;;;;;5054899;28;20442;-59
2023/08/27 09:46:34;;;;;;;1.40;1.30;;;23.60;67.40;;;;;;5054713;28;20453;-59
2023/08/27 09:49:04;;;;;;;2.83;1.80;;;23.70;66.90;;;;;;5054749;28;20437;-58
2023/08/27 09:51:32;;;;;;;2.30;1.17;;;23.80;66.30;;;;;;5054581;28;20473;-60
2023/08/27 09:53:59;;;;;;;2.13;1.23;;;24.00;64.90;;;;;;5054335;28;20935;-59
2023/08/27 09:56:28;;;;;;;2.33;1.67;;;24.30;64.10;;;;;;5054531;28;20442;-59
2023/08/27 09:58:56;;;;;;;2.37;1.80;;;24.60;62.80;;;;;;5054524;28;20796;-60
2023/08/27 10:01:25;;;;;;;6.53;1.40;;;24.80;59.50;;;;;;5054376;28;20461;-59
2023/08/27 10:03:52;;;;;;;2.37;1.40;;;25.00;58.10;;;;;;5054481;28;20449;-59
2023/08/27 10:06:19;;;;;;;3.13;1.50;;;24.90;56.70;;;;;;5054421;28;20465;-59
2023/08/27 10:08:47;;;;;;;3.90;1.40;;;24.70;58.00;;;;;;5054637;28;20485;-60
2023/08/27 10:11:15;;;;;;;2.23;1.40;;;24.90;59.10;;;;;;5054379;28;20515;-59
2023/08/27 10:13:44;;;;;;;4.13;1.30;;;25.20;59.80;;;;;;5054506;28;20441;-60
2023/08/27 10:16:11;;;;;;;2.43;1.20;;;25.60;57.90;;;;;;5054343;28;20450;-59
2023/08/27 10:18:39;;;;;;;2.93;1.50;;;25.80;57.20;;;;;;5054312;28;20442;-60
2023/08/27 10:21:07;;;;;;;2.40;1.33;;;25.50;56.10;;;;;;5053959;28;20477;-59
2023/08/27 10:23:34;;;;;;;2.87;1.03;;;25.10;56.70;;;;;;5054110;28;20437;-59
2023/08/27 10:26:03;;;;;;;3.70;1.30;;;24.50;56.90;;;;;;5054014;28;20469;-60
2023/08/27 10:28:32;;;;;;;3.77;1.63;;;24.00;57.90;;;;;;5053832;28;20489;-60
2023/08/27 10:31:00;;;;;;;5.20;1.50;;;23.50;59.70;;;;;;5053849;28;20457;-61
2023/08/27 10:33:28;;;;;;;2.70;1.30;;;23.30;62.20;;;;;;5053942;28;20446;-61
2023/08/27 10:35:56;;;;;;;2.87;1.20;;;23.50;63.60;;;;;;5053911;28;20465;-60
2023/08/27 10:38:26;;;;;;;2.00;1.00;;;23.90;60.70;;;;;;5053454;28;20940;-60
2023/08/27 10:40:53;;;;;;;1.93;1.10;;;24.30;58.50;;;;;;5053808;28;20480;-60
2023/08/27 10:43:21;;;;;;;2.57;1.00;;;24.90;57.40;;;;;;5053729;28;20928;-60
2023/08/27 10:45:49;;;;;;;2.97;0.90;;;25.50;55.40;;;;;;5053882;28;20453;-61
2023/08/27 10:48:30;;;;;;;2.97;1.27;;;26.10;53.00;;;;;;5053616;28;20474;-61
2023/08/27 10:51:09;;;;;;;2.20;0.80;;;26.60;50.80;;;;;;5052940;28;20912;-61
2023/08/27 10:53:40;;;;;;;3.03;0.97;;;26.80;49.90;;;;;;5053620;28;20425;-61
2023/08/27 10:56:26;;;;;;;1.87;0.80;;;26.90;48.30;;;;;;5053635;28;20429;-61
2023/08/27 10:58:52;;;;;;;2.27;1.07;;;27.50;48.70;;;;;;5053472;28;20461;-60
2023/08/27 11:01:19;;;;;;;1.30;1.00;;;28.20;46.00;;;;;;5053562;28;20458;-60
2023/08/27 11:03:58;;;;;;;3.20;1.03;;;28.50;45.30;;;;;;5053151;28;20997;-60
2023/08/27 11:06:38;;;;;;;4.57;1.10;;;29.00;43.20;;;;;;5053126;28;20883;-60
2023/08/27 11:09:15;;;;;;;2.90;1.20;;;28.90;41.30;;;;;;5053422;28;20583;-60
2023/08/27 11:11:46;;;;;;;1.33;0.97;;;28.70;42.00;;;;;;5053110;28;20472;-61
2023/08/27 11:14:16;;;;;;;2.87;1.10;;;28.50;42.10;;;;;;5053189;28;20488;-60
2023/08/27 11:16:53;;;;;;;2.67;1.10;;;28.70;41.60;;;;;;5053012;28;20821;-61
2023/08/27 11:19:30;;;;;;;4.93;1.20;;;29.40;41.40;;;;;;5053468;28;20418;-61
2023/08/27 11:22:09;;;;;;;2.30;1.07;;;30.00;38.50;;;;;;5053278;28;20485;-61
2023/08/27 11:24:39;;;;;;;2.17;0.90;;;30.20;38.20;;;;;;5053818;28;20445;-61
2023/08/27 11:27:07;;;;;;;1.93;0.90;;;30.10;38.10;;;;;;5053384;28;20441;-60
2023/08/27 11:29:38;;;;;;;3.43;1.83;;;30.00;39.90;;;;;;5053643;28;20456;-61
2023/08/27 11:32:05;;;;;;;4.67;1.40;;;30.40;38.20;;;;;;5053463;28;20522;-61
2023/08/27 11:34:36;;;;;;;1.10;0.93;;;30.40;37.20;;;;;;5053436;28;20445;-61
2023/08/27 11:37:04;;;;;;;1.60;1.00;;;30.40;37.40;;;;;;5053425;28;20418;-61
2023/08/27 11:39:30;;;;;;;2.47;0.67;;;30.20;38.00;;;;;;5053322;28;20445;-60
2023/08/27 11:41:57;;;;;;;3.40;1.03;;;29.60;37.70;;;;;;5053143;28;20474;-61
2023/08/27 11:44:24;;;;;;;1.13;0.73;;;29.40;38.10;;;;;;5052967;28;20441;-60
2023/08/27 11:46:51;;;;;;;3.90;0.97;;;29.50;37.90;;;;;;5052977;28;20437;-60
2023/08/27 11:49:28;;;;;;;1.53;0.90;;;29.70;38.20;;;;;;5053094;28;20492;-60
2023/08/27 11:51:57;;;;;;;3.23;0.70;;;29.90;37.50;;;;;;5053253;28;20460;-60
2023/08/27 11:54:28;;;;;;;1.97;1.00;;;30.70;36.90;;;;;;5052917;28;20442;-60
2023/08/27 11:56:56;;;;;;;3.10;1.27;;;31.00;36.10;;;;;;5053136;28;20439;-60
2023/08/27 11:59:25;;;;;;;2.90;1.20;;;31.00;35.50;;;;;;5053254;28;20438;-60
2023/08/27 12:01:52;;;;;;;4.63;1.50;;;30.30;36.90;;;;;;5054062;28;20472;-61
2023/08/27 12:04:18;;;;;;;1.17;0.97;;;29.20;37.00;;;;;;5056766;28;20943;-60
2023/08/27 12:06:52;;;;;;;6.33;1.00;;;28.40;40.20;;;;;;5056918;28;20453;-60
2023/08/27 12:09:26;;;;;;;3.27;1.10;;;27.50;41.90;;;;;;5056979;28;20501;-61
2023/08/27 12:11:53;;;;;;;1.80;0.67;;;26.40;43.50;;;;;;5056945;28;20469;-60
2023/08/27 12:14:24;;;;;;;4.73;1.10;;;25.60;45.70;;;;;;5057774;28;20450;-60
2023/08/27 12:16:51;;;;;;;2.90;1.00;;;25.20;42.80;;;;;;5059593;28;20498;-61
2023/08/27 12:19:20;;;;;;;3.43;0.90;;;25.50;44.10;;;;;;5059760;28;20457;-62
2023/08/27 12:21:47;;;;;;;2.50;1.30;;;26.30;43.50;;;;;;5057482;28;20880;-61
2023/08/27 12:24:28;;;;;;;4.53;0.83;;;27.10;41.20;;;;;;5056607;28;20507;-60
2023/08/27 12:26:55;;;;;;;2.80;0.97;;;27.90;41.30;;;;;;5056478;28;20465;-61
2023/08/27 12:29:22;;;;;;;3.33;1.17;;;28.70;40.00;;;;;;5056214;28;20484;-61
2023/08/27 12:31:53;;;;;;;1.60;0.70;;;29.30;38.70;;;;;;5056216;28;20461;-60
2023/08/27 12:34:19;;;;;;;2.53;0.90;;;29.40;37.50;;;;;;5056196;28;20795;-60
2023/08/27 12:36:46;;;;;;;0.90;0.60;;;29.80;35.80;;;;;;5056151;28;20819;-60
2023/08/27 12:39:13;;;;;;;1.33;0.90;;;30.00;35.90;;;;;;5056116;28;20449;-60
2023/08/27 12:41:41;;;;;;;1.50;0.90;;;30.60;35.70;;;;;;5056032;28;20465;-60
2023/08/27 12:44:07;;;;;;;1.00;0.70;;;31.20;33.50;;;;;;5055983;28;20453;-60
2023/08/27 12:46:35;;;;;;;1.93;0.70;;;31.50;35.30;;;;;;5056047;28;20456;-60
2023/08/27 12:49:02;;;;;;;2.37;1.10;;;32.00;32.70;;;;;;5056060;28;20484;-60
2023/08/27 12:51:29;;;;;;;2.40;0.97;;;32.30;30.90;;;;;;5055489;28;20813;-61